Aviation Digital Data Service (ADDS)

Output produced by METARs form (1255 UTC 19 January 2019)
found at http://www.aviationweather.gov/metar/data/
 
Forecast for: VTUW (NAKHON PHANOM , TH)
Text: TAF VTUW 191100Z 1912/2012 11007KT 9999 FEW035 SCT100
Forecast period: 1200 to 2200 UTC 19 January 2019
Forecast type: FROM: standard forecast or significant change
Winds: from the ESE (110 degrees) at 8 MPH (7 knots; 3.6 m/s)
Visibility: 6 or more miles 10+ km)
Ceiling: at least 12,000 feet AGL
Clouds: few clouds at 3500 feet AGL
scattered clouds at 10000 feet AGL
Weather: no significant weather forecast for this period
Text: BECMG 1922/1924 5000 BR
Forecast period: 2200 UTC 19 January 2019 to 0100 UTC 20 January 2019
Forecast type: BECOMING: Conditions expected to become as follows by 0000 UTC 20 January 2019
Winds: from the ESE (110 degrees) at 8 MPH (7 knots; 3.6 m/s)
Visibility: 3 miles (5 km)
Ceiling: at least 12,000 feet AGL
Clouds: few clouds at 3500 feet AGL
scattered clouds at 10000 feet AGL
Weather: BR  (mist)
Text: BECMG 2001/2003 9000 NSW FEW035
Forecast period: 0100 to 1200 UTC 20 January 2019
Forecast type: BECOMING: Conditions expected to become as follows by 0300 UTC 20 January 2019
Winds: from the ESE (110 degrees) at 8 MPH (7 knots; 3.6 m/s)
Visibility: 6 miles (9 km)
Ceiling: at least 12,000 feet AGL
Clouds: few clouds at 3500 feet AGL
Weather: NSW  (no significant weather)